Time;durP1;ratioP1;P1;durP2;ratioP2;P2;SDS_P1;SDS_P2;PMS_P1;PMS_P2;Temp;Humidity;BMP_temperature;BMP_pressure;BME280_temperature;BME280_humidity;BME280_pressure;Samples;Min_cycle;Max_cycle;Signal;HPM_P1;HPM_P2
2022/08/19 00:00:11;;;;;;;;;;;;;;;29.02;40.79;93929.44;5005289;28;7330;-62
2022/08/19 00:03:07;;;;;;;;;;;;;;;29.03;40.91;93932.94;4936138;28;8834;-62
2022/08/19 00:05:34;;;;;;;;;;;;;;;29.03;40.97;93933.69;4864540;29;7197;-63
2022/08/19 00:08:00;;;;;;;;;;;;;;;29.02;41.03;93929.44;4878157;29;7227;-62
2022/08/19 00:10:27;;;;;;;;;;;;;;;29.02;40.93;93920.38;4862716;29;9423;-62
2022/08/19 00:12:55;;;;;;;;;;;;;;;29.02;40.37;93923.91;4862852;29;7068;-63
2022/08/19 00:15:27;;;;;;;;;;;;;;;29.02;41.42;93923.16;4860276;29;7137;-62
2022/08/19 00:17:54;;;;;;;;;;;;;;;29.01;41.17;93932.75;4870462;29;7180;-62
2022/08/19 00:20:21;;;;;;;;;;;;;;;29.01;40.75;93927.94;4863312;29;7219;-62
2022/08/19 00:22:50;;;;;;;;;;;;;;;28.99;40.97;93933.28;4879599;29;7245;-62
2022/08/19 00:25:40;;;;;;;;;;;;;;;28.99;40.71;93936.06;4859146;29;7024;-62
2022/08/19 00:28:07;;;;;;;;;;;;;;;28.99;40.55;93935.34;4858001;29;6983;-62
2022/08/19 00:30:51;;;;;;;;;;;;;;;28.98;41.32;93933.84;4865650;29;7944;-62
2022/08/19 00:33:54;;;;;;;;;;;;;;;28.98;41.06;93933.84;4866043;29;9143;-62
2022/08/19 00:36:35;;;;;;;;;;;;;;;28.97;41.31;93930.31;4807342;29;7482;-62
2022/08/19 00:39:04;;;;;;;;;;;;;;;28.97;40.91;93932.38;4811784;29;7435;-62
2022/08/19 00:41:30;;;;;;;;;;;;;;;28.98;40.81;93934.59;4862790;29;7058;-62
2022/08/19 00:44:01;;;;;;;;;;;;;;;28.97;41.18;93932.38;4898056;29;6965;-62
2022/08/19 00:46:52;;;;;;;;;;;;;;;28.97;40.96;93922.00;4911842;29;7228;-63
2022/08/19 00:49:30;;;;;;;;;;;;;;;28.96;40.76;93926.09;4912158;29;7252;-63
2022/08/19 00:52:36;;;;;;;;;;;;;;;28.95;40.69;93923.84;4896352;29;8740;-62
2022/08/19 00:55:20;;;;;;;;;;;;;;;28.95;40.98;93935.66;4897018;29;7232;-62
2022/08/19 00:58:09;;;;;;;;;;;;;;;28.96;40.68;93936.41;4897168;29;8241;-62
2022/08/19 01:00:49;;;;;;;;;;;;;;;28.94;40.98;93934.19;4904737;29;7329;-63
2022/08/19 01:03:25;;;;;;;;;;;;;;;28.94;40.79;93933.44;4896160;29;9124;-63
2022/08/19 01:05:57;;;;;;;;;;;;;;;28.93;41.06;93927.16;4914265;29;7249;-63
2022/08/19 01:08:25;;;;;;;;;;;;;;;28.91;40.89;93926.97;4894356;29;7937;-62
2022/08/19 01:10:58;;;;;;;;;;;;;;;28.94;40.89;93925.13;4978979;28;7219;-63
2022/08/19 01:13:28;;;;;;;;;;;;;;;28.92;41.06;93922.19;5004017;28;7040;-62
2022/08/19 01:16:04;;;;;;;;;;;;;;;28.92;40.76;93920.16;5008191;28;7274;-62
2022/08/19 01:18:37;;;;;;;;;;;;;;;28.90;40.95;93916.44;5008345;28;7203;-62
2022/08/19 01:21:15;;;;;;;;;;;;;;;28.89;40.69;93915.69;4987903;28;7015;-62
2022/08/19 01:23:43;;;;;;;;;;;;;;;28.89;41.17;93917.72;4992564;28;7054;-62
2022/08/19 01:26:14;;;;;;;;;;;;;;;28.88;40.96;93916.97;5006189;28;8085;-63
2022/08/19 01:28:44;;;;;;;;;;;;;;;28.88;41.33;93913.47;4984651;28;7164;-62
2022/08/19 01:31:18;;;;;;;;;;;;;;;28.89;40.56;93914.94;5005041;28;7796;-62
2022/08/19 01:33:44;;;;;;;;;;;;;;;28.89;41.04;93918.47;5009530;28;7253;-62
2022/08/19 01:36:22;;;;;;;;;;;;;;;28.87;41.27;93912.72;5003861;28;9193;-62
2022/08/19 01:38:50;;;;;;;;;;;;;;;28.90;40.79;93922.72;4990296;28;7230;-63
2022/08/19 01:41:18;;;;;;;;;;;;;;;28.91;40.88;93917.91;4989068;28;7209;-63
2022/08/19 01:43:44;;;;;;;;;;;;;;;28.91;41.03;93917.91;5005603;28;8101;-63
2022/08/19 01:46:11;;;;;;;;;;;;;;;28.90;40.94;93911.66;4982757;28;7248;-63
2022/08/19 01:48:40;;;;;;;;;;;;;;;28.86;41.12;93914.00;4985230;28;7601;-63
2022/08/19 01:51:07;;;;;;;;;;;;;;;28.84;40.84;93913.09;5005190;28;7304;-63
2022/08/19 01:53:36;;;;;;;;;;;;;;;28.83;41.66;93895.72;5008489;28;7456;-62
2022/08/19 01:56:09;;;;;;;;;;;;;;;28.82;41.00;93888.69;4991388;28;7401;-62
2022/08/19 01:58:41;;;;;;;;;;;;;;;28.86;41.42;93893.91;4991629;28;7257;-62
2022/08/19 02:01:08;;;;;;;;;;;;;;;28.86;40.88;93889.09;5004831;28;7257;-62
2022/08/19 02:03:36;;;;;;;;;;;;;;;28.88;41.16;93888.56;5009247;28;7213;-63
2022/08/19 02:06:05;;;;;;;;;;;;;;;28.87;41.19;93890.59;5009816;28;8013;-62
2022/08/19 02:08:34;;;;;;;;;;;;;;;28.88;40.98;93892.06;4991404;28;9495;-62
2022/08/19 02:11:26;;;;;;;;;;;;;;;28.89;41.01;93885.25;4994415;28;8438;-62
2022/08/19 02:13:53;;;;;;;;;;;;;;;28.89;41.25;93881.72;5011628;28;9724;-63
2022/08/19 02:16:22;;;;;;;;;;;;;;;28.89;41.24;93879.72;4987596;28;7103;-63
2022/08/19 02:18:49;;;;;;;;;;;;;;;28.87;41.05;93885.06;5009942;28;7000;-63
2022/08/19 02:21:19;;;;;;;;;;;;;;;28.89;41.34;93888.00;4995364;28;6987;-63
2022/08/19 02:24:06;;;;;;;;;;;;;;;28.88;40.77;93900.34;5009174;28;9394;-62
2022/08/19 02:26:33;;;;;;;;;;;;;;;28.87;41.14;93904.44;5010727;28;8773;-62
2022/08/19 02:29:01;;;;;;;;;;;;;;;28.88;40.99;93914.19;5009399;28;7298;-63
2022/08/19 02:31:38;;;;;;;;;;;;;;;28.89;40.51;93901.09;4993817;28;7242;-62
2022/08/19 02:34:06;;;;;;;;;;;;;;;28.87;40.36;93898.88;4995430;28;7197;-63
2022/08/19 02:36:33;;;;;;;;;;;;;;;28.87;41.12;93896.13;4992074;28;7252;-63
2022/08/19 02:39:04;;;;;;;;;;;;;;;28.86;40.47;93900.16;4994369;28;6894;-62
2022/08/19 02:41:34;;;;;;;;;;;;;;;28.85;40.88;93897.94;4994157;28;8942;-62
2022/08/19 02:44:09;;;;;;;;;;;;;;;28.88;41.11;93902.41;4986935;28;9751;-63
2022/08/19 02:46:36;;;;;;;;;;;;;;;28.86;40.97;93905.69;5007560;28;6974;-62
2022/08/19 02:49:16;;;;;;;;;;;;;;;28.86;40.93;93902.94;4986084;28;7242;-62
2022/08/19 02:51:44;;;;;;;;;;;;;;;28.85;41.09;93904.22;5007077;28;7191;-63
2022/08/19 02:54:23;;;;;;;;;;;;;;;28.81;41.52;93903.09;5009105;28;7082;-63
2022/08/19 02:56:56;;;;;;;;;;;;;;;28.80;41.28;93905.13;4993737;28;7225;-62
2022/08/19 02:59:26;;;;;;;;;;;;;;;28.82;40.69;93899.78;5011079;28;7645;-63
2022/08/19 03:02:01;;;;;;;;;;;;;;;28.84;41.12;93907.56;5009345;28;7064;-62
2022/08/19 03:04:41;;;;;;;;;;;;;;;28.85;41.11;93903.50;4985420;28;7007;-62
2022/08/19 03:07:18;;;;;;;;;;;;;;;28.85;41.10;93904.22;5007407;28;7276;-62
2022/08/19 03:09:45;;;;;;;;;;;;;;;28.85;41.04;93898.69;4985746;28;9137;-62
2022/08/19 03:12:13;;;;;;;;;;;;;;;28.86;40.42;93900.16;5006922;28;9483;-62
2022/08/19 03:14:39;;;;;;;;;;;;;;;28.85;41.01;93903.50;4997731;28;7216;-62
2022/08/19 03:17:05;;;;;;;;;;;;;;;28.84;41.09;93902.75;4987816;28;9161;-62
2022/08/19 03:19:31;;;;;;;;;;;;;;;28.84;41.01;93894.44;4982716;28;9060;-63
2022/08/19 03:22:00;;;;;;;;;;;;;;;28.83;40.96;93895.72;5009869;28;9464;-63
2022/08/19 03:24:56;;;;;;;;;;;;;;;28.83;40.79;93894.97;5010982;28;8942;-62
2022/08/19 03:27:41;;;;;;;;;;;;;;;28.81;40.90;93898.31;4917823;29;9413;-62
2022/08/19 03:30:26;;;;;;;;;;;;;;;28.80;41.23;93898.84;4915898;29;7389;-62
2022/08/19 03:32:53;;;;;;;;;;;;;;;28.80;40.71;93896.81;4929635;29;7029;-62
2022/08/19 03:35:21;;;;;;;;;;;;;;;28.81;40.69;93903.09;4932062;29;9246;-62
2022/08/19 03:38:08;;;;;;;;;;;;;;;28.79;40.79;93898.13;4932340;29;7177;-62
2022/08/19 03:40:45;;;;;;;;;;;;;;;28.82;41.46;93887.94;4929613;29;9021;-62
2022/08/19 03:43:21;;;;;;;;;;;;;;;28.81;40.88;93892.78;4917136;29;8788;-62
2022/08/19 03:46:28;;;;;;;;;;;;;;;28.81;40.70;93895.53;4915474;29;7202;-62
2022/08/19 03:49:08;;;;;;;;;;;;;;;28.79;41.12;93895.34;4895314;29;7898;-62
2022/08/19 03:51:47;;;;;;;;;;;;;;;28.80;41.42;93899.56;4894225;29;7285;-62
2022/08/19 03:54:25;;;;;;;;;;;;;;;28.83;40.84;93897.75;4895095;29;7482;-62
2022/08/19 03:57:04;;;;;;;;;;;;;;;28.81;40.17;93892.78;4878609;29;7196;-62
2022/08/19 03:59:46;;;;;;;;;;;;;;;28.81;40.88;93903.84;4894631;29;7240;-62
2022/08/19 04:02:15;;;;;;;;;;;;;;;28.80;41.24;93904.38;4894534;29;7362;-62
2022/08/19 04:04:57;;;;;;;;;;;;;;;28.78;41.00;93899.38;4943127;28;7226;-62
2022/08/19 04:07:32;;;;;;;;;;;;;;;28.75;40.99;93892.16;4969152;28;7265;-62
2022/08/19 04:10:03;;;;;;;;;;;;;;;28.72;41.02;93896.03;4953116;28;7524;-62
2022/08/19 04:12:39;;;;;;;;;;;;;;;28.74;40.88;93893.47;4955031;28;9179;-62
2022/08/19 04:15:05;;;;;;;;;;;;;;;28.73;40.47;93896.78;4946598;28;9515;-62
2022/08/19 04:17:33;;;;;;;;;;;;;;;28.71;40.86;93900.06;4946198;28;9255;-62
2022/08/19 04:20:02;;;;;;;;;;;;;;;28.73;40.85;93902.31;4955602;28;7027;-62
2022/08/19 04:23:02;;;;;;;;;;;;;;;28.76;40.94;93907.50;4966900;28;7244;-62
2022/08/19 04:25:55;;;;;;;;;;;;;;;28.74;40.87;93910.06;4876107;29;7258;-62
2022/08/19 04:28:24;;;;;;;;;;;;;;;28.74;40.88;93910.06;4875002;29;7380;-62
2022/08/19 04:30:53;;;;;;;;;;;;;;;28.74;41.04;93915.59;4871798;29;9060;-62
2022/08/19 04:33:23;;;;;;;;;;;;;;;28.77;40.91;93919.31;4872468;29;9068;-63
2022/08/19 04:35:52;;;;;;;;;;;;;;;28.74;40.54;93910.06;4884829;29;7181;-63
2022/08/19 04:38:29;;;;;;;;;;;;;;;28.72;40.87;93912.63;4869495;29;7083;-62
2022/08/19 04:43:41;;;;;;;;;;;;;;;28.74;40.71;93915.59;4879749;29;9148;-62
2022/08/19 04:46:17;;;;;;;;;;;;;;;28.74;40.52;93914.84;4875343;29;6954;-63
2022/08/19 04:48:43;;;;;;;;;;;;;;;28.73;40.54;93916.16;4892850;29;7262;-62
2022/08/19 04:51:13;;;;;;;;;;;;;;;28.74;40.96;93929.44;4880654;29;7272;-62
2022/08/19 04:53:41;;;;;;;;;;;;;;;28.72;41.06;93926.47;4881004;29;9016;-62
2022/08/19 04:56:59;;;;;;;;;;;;;;;28.71;40.81;93936.03;4878579;29;7236;-62
2022/08/19 04:59:39;;;;;;;;;;;;;;;28.71;40.78;93938.81;4895034;29;7022;-62
2022/08/19 05:02:08;;;;;;;;;;;;;;;28.71;41.33;93938.81;5001829;28;8579;-63
2022/08/19 05:04:39;;;;;;;;;;;;;;;28.70;40.87;93942.88;4992104;28;7042;-63
2022/08/19 05:07:24;;;;;;;;;;;;;;;28.67;41.43;93949.50;4986578;28;7284;-62
2022/08/19 05:10:30;;;;;;;;;;;;;;;28.66;40.93;93945.25;4995630;28;9203;-62
2022/08/19 05:13:10;;;;;;;;;;;;;;;28.66;41.22;93950.78;4893025;29;7236;-62
2022/08/19 05:15:36;;;;;;;;;;;;;;;28.65;41.07;93957.59;4899670;29;9069;-62
2022/08/19 05:23:34;;;;;;;;;;;;;;;28.64;41.25;93958.88;4906976;29;7287;-62
2022/08/19 05:26:11;;;;;;;;;;;;;;;28.64;41.21;93958.13;4897545;29;7470;-62
2022/08/19 05:28:46;;;;;;;;;;;;;;;28.62;41.27;93963.47;4907943;29;7137;-62
2022/08/19 05:31:28;;;;;;;;;;;;;;;28.63;41.38;93962.94;4891350;29;7863;-62
2022/08/19 05:34:26;;;;;;;;;;;;;;;28.59;41.27;93965.28;4911232;29;7003;-62
2022/08/19 05:36:58;;;;;;;;;;;;;;;28.56;41.44;93971.88;4837974;29;7193;-62
2022/08/19 05:39:40;;;;;;;;;;;;;;;28.58;41.54;93982.44;4836997;29;7269;-62
2022/08/19 05:42:16;;;;;;;;;;;;;;;28.58;41.53;93980.41;4836820;29;7093;-62
2022/08/19 05:44:56;;;;;;;;;;;;;;;28.57;41.38;93978.94;4924064;29;7378;-61
2022/08/19 05:47:31;;;;;;;;;;;;;;;28.58;41.86;93980.41;4916918;29;7467;-62
2022/08/19 05:50:01;;;;;;;;;;;;;;;28.60;41.58;93972.31;4932144;29;7436;-61
2022/08/19 05:52:38;;;;;;;;;;;;;;;28.62;41.47;93974.53;4930511;29;7270;-61
2022/08/19 05:55:06;;;;;;;;;;;;;;;28.62;41.40;93969.75;4916251;28;8819;-62
2022/08/19 05:57:34;;;;;;;;;;;;;;;28.62;41.17;93972.53;4911672;29;6978;-62
2022/08/19 06:00:01;;;;;;;;;;;;;;;28.60;41.13;93972.31;4907865;29;7267;-61
2022/08/19 06:02:30;;;;;;;;;;;;;;;28.58;41.56;93969.34;4921806;28;9264;-62
2022/08/19 06:04:56;;;;;;;;;;;;;;;28.58;41.08;93963.09;4911377;29;9053;-61
2022/08/19 06:07:22;;;;;;;;;;;;;;;28.57;41.48;93967.09;4925231;29;7156;-62
2022/08/19 06:09:48;;;;;;;;;;;;;;;28.56;41.68;93971.16;4923675;28;8836;-61
2022/08/19 06:12:14;;;;;;;;;;;;;;;28.55;41.77;93975.19;4931220;28;9720;-61
2022/08/19 06:14:47;;;;;;;;;;;;;;;28.56;41.75;93976.69;5000136;28;7020;-62
2022/08/19 06:17:13;;;;;;;;;;;;;;;28.55;41.57;93975.94;4980153;28;8737;-61
2022/08/19 06:19:40;;;;;;;;;;;;;;;28.53;41.45;93975.75;4997433;28;7922;-62
2022/08/19 06:22:07;;;;;;;;;;;;;;;28.52;41.94;93979.78;4998926;28;8467;-62
2022/08/19 06:24:36;;;;;;;;;;;;;;;28.52;41.61;93982.53;4999851;28;9193;-62
2022/08/19 06:27:05;;;;;;;;;;;;;;;28.49;41.83;93972.56;4980486;28;7254;-62
2022/08/19 06:29:32;;;;;;;;;;;;;;;28.47;41.48;93975.09;4982086;28;9053;-62
2022/08/19 06:32:00;;;;;;;;;;;;;;;28.45;41.86;93972.13;4980861;28;7162;-62
2022/08/19 06:34:31;;;;;;;;;;;;;;;28.40;42.14;93964.75;5002776;28;7232;-62
2022/08/19 06:37:34;;;;;;;;;;;;;;;28.42;41.98;93970.47;5001949;28;9273;-62
2022/08/19 06:40:10;;;;;;;;;;;;;;;28.44;42.00;93965.13;5002829;28;8626;-62
2022/08/19 06:42:43;;;;;;;;;;;;;;;28.44;42.40;93965.13;5008778;28;9058;-61
2022/08/19 06:45:17;;;;;;;;;;;;;;;28.40;42.75;93970.28;5007137;28;7948;-61
2022/08/19 06:47:46;;;;;;;;;;;;;;;28.39;42.54;93977.06;4990108;28;7272;-61
2022/08/19 06:50:16;;;;;;;;;;;;;;;28.41;42.76;93976.53;4988861;28;7051;-61
2022/08/19 06:52:41;;;;;;;;;;;;;;;28.44;42.49;93975.47;4990898;28;7480;-61
2022/08/19 06:56:01;;;;;;;;;;;;;;;28.47;42.74;93980.63;4991167;28;7176;-62
2022/08/19 06:58:46;;;;;;;;;;;;;;;28.50;42.41;93979.56;4951552;28;7260;-62
2022/08/19 07:01:39;;;;;;;;;;;;;;;28.50;42.48;93985.09;4911529;29;7156;-63
2022/08/19 07:04:10;;;;;;;;;;;;;;;28.51;42.70;93994.91;4935782;28;9027;-63
2022/08/19 07:06:39;;;;;;;;;;;;;;;28.54;42.58;93990.28;4949855;28;7494;-62
2022/08/19 07:09:17;;;;;;;;;;;;;;;28.54;42.91;93995.81;4950398;28;7960;-62
2022/08/19 07:12:18;;;;;;;;;;;;;;;28.55;42.97;93998.06;4931641;28;8951;-63
2022/08/19 07:14:49;;;;;;;;;;;;;;;28.55;42.73;94000.09;4882962;29;6934;-62
2022/08/19 07:17:15;;;;;;;;;;;;;;;28.54;42.37;94002.09;4861869;29;7185;-62
2022/08/19 07:19:44;;;;;;;;;;;;;;;28.53;42.75;93995.09;4874254;29;7819;-62
2022/08/19 07:22:20;;;;;;;;;;;;;;;28.54;42.83;93999.34;4851036;29;6995;-63
2022/08/19 07:24:48;;;;;;;;;;;;;;;28.53;43.23;93994.34;4873546;29;9068;-62
2022/08/19 07:27:16;;;;;;;;;;;;;;;28.52;42.64;94004.69;4874732;29;7313;-62
2022/08/19 07:29:45;;;;;;;;;;;;;;;28.51;43.13;94000.44;4871464;29;7229;-62
2022/08/19 07:32:11;;;;;;;;;;;;;;;28.51;42.38;94005.97;4870220;29;7311;-62
2022/08/19 07:34:46;;;;;;;;;;;;;;;28.52;43.19;93999.13;4871160;29;7012;-62
2022/08/19 07:37:23;;;;;;;;;;;;;;;28.51;43.29;94003.19;4915160;29;7240;-62
2022/08/19 07:40:15;;;;;;;;;;;;;;;28.50;43.03;94012.78;4913995;29;9098;-62
2022/08/19 07:43:28;;;;;;;;;;;;;;;28.50;43.14;94001.72;4910328;29;9715;-62
2022/08/19 07:45:56;;;;;;;;;;;;;;;28.48;42.91;94015.34;4842777;29;7229;-62
2022/08/19 07:48:37;;;;;;;;;;;;;;;28.50;42.93;94023.84;4856318;29;8998;-62
2022/08/19 07:51:17;;;;;;;;;;;;;;;28.50;42.81;94018.31;4892482;29;9094;-62
2022/08/19 07:54:03;;;;;;;;;;;;;;;28.46;43.18;94023.44;4884263;29;8241;-62
2022/08/19 07:56:29;;;;;;;;;;;;;;;28.44;42.89;94020.47;4876192;29;7330;-62
2022/08/19 07:59:28;;;;;;;;;;;;;;;28.47;42.85;94035.25;4874546;29;6936;-62
2022/08/19 08:02:14;;;;;;;;;;;;;;;28.45;42.81;94044.06;4860819;29;9068;-62
2022/08/19 08:11:04;;;;;;;;;;;;;;;28.47;43.03;94051.84;4834107;29;9395;-62
2022/08/19 08:13:41;;;;;;;;;;;;;;;28.44;42.54;94053.66;4815392;29;7435;-62
2022/08/19 08:16:07;;;;;;;;;;;;;;;28.45;43.40;94062.72;4820400;29;6998;-62
2022/08/19 08:18:41;;;;;;;;;;;;;;;28.41;42.92;94068.56;4837680;29;7676;-62
2022/08/19 08:21:08;;;;;;;;;;;;;;;28.44;42.67;94064.72;4835963;29;7429;-63
2022/08/19 08:23:35;;;;;;;;;;;;;;;28.46;42.68;94078.78;4881073;29;7322;-62
2022/08/19 08:26:02;;;;;;;;;;;;;;;28.45;42.70;94082.81;4889522;29;7141;-63
2022/08/19 08:28:39;;;;;;;;;;;;;;;28.46;43.18;94076.00;4888750;29;8050;-63
2022/08/19 08:31:20;;;;;;;;;;;;;;;28.46;42.96;94081.53;4890803;29;7329;-62
2022/08/19 08:34:11;;;;;;;;;;;;;;;28.47;43.10;94096.13;4889347;29;7164;-62
2022/08/19 08:36:47;;;;;;;;;;;;;;;28.47;42.97;94094.06;4890352;29;7351;-62
2022/08/19 08:39:17;;;;;;;;;;;;;;;28.45;43.22;94091.09;4921619;29;9690;-63
2022/08/19 08:42:12;;;;;;;;;;;;;;;28.46;42.87;94106.44;4911496;29;7525;-63
2022/08/19 08:45:20;;;;;;;;;;;;;;;28.46;42.99;94108.44;4908213;29;7738;-62
2022/08/19 08:47:53;;;;;;;;;;;;;;;28.45;43.01;94116.00;4962109;28;7265;-62
2022/08/19 08:50:52;;;;;;;;;;;;;;;28.45;43.03;94121.53;4990738;28;7613;-62
2022/08/19 08:53:30;;;;;;;;;;;;;;;28.45;43.32;94124.31;5006580;28;7355;-62
2022/08/19 08:56:01;;;;;;;;;;;;;;;28.45;43.04;94121.53;5006814;28;9206;-62
2022/08/19 08:59:09;;;;;;;;;;;;;;;28.44;42.83;94130.38;5007794;28;8712;-63
2022/08/19 09:01:54;;;;;;;;;;;;;;;28.44;43.11;94124.84;4896196;29;7398;-63
2022/08/19 09:04:50;;;;;;;;;;;;;;;28.45;42.79;94138.13;4908291;29;7334;-64
2022/08/19 09:08:02;;;;;;;;;;;;;;;28.46;43.44;94139.63;4818344;29;9488;-63
2022/08/19 09:10:38;;;;;;;;;;;;;;;28.45;42.76;94135.38;4800384;29;6993;-63
2022/08/19 09:13:08;;;;;;;;;;;;;;;28.47;42.67;94145.91;4799568;29;7596;-63
2022/08/19 09:15:46;;;;;;;;;;;;;;;28.46;42.92;94145.16;4805573;29;9437;-63
2022/08/19 09:18:12;;;;;;;;;;;;;;;28.49;43.12;94143.34;4797405;29;7347;-62
2022/08/19 09:20:40;;;;;;;;;;;;;;;28.50;42.94;94144.84;4797922;29;7304;-63
2022/08/19 09:23:06;;;;;;;;;;;;;;;28.52;42.87;94145.03;4779637;29;8900;-63
2022/08/19 09:25:35;;;;;;;;;;;;;;;28.50;42.75;94145.59;4798509;29;9104;-62
2022/08/19 09:28:07;;;;;;;;;;;;;;;28.52;42.77;94148.56;4800526;29;9168;-63
2022/08/19 09:30:40;;;;;;;;;;;;;;;28.52;43.00;94148.56;4799386;29;9309;-63
2022/08/19 09:33:08;;;;;;;;;;;;;;;28.52;42.78;94158.88;4799014;29;7076;-63
2022/08/19 09:35:39;;;;;;;;;;;;;;;28.52;42.60;94156.84;4784029;29;7115;-63
2022/08/19 09:38:05;;;;;;;;;;;;;;;28.52;42.89;94156.09;4850469;29;7044;-63
2022/08/19 09:40:40;;;;;;;;;;;;;;;28.50;42.62;94156.66;4838681;29;7230;-62
2022/08/19 09:43:06;;;;;;;;;;;;;;;28.50;42.67;94164.19;4875191;28;7279;-62
2022/08/19 09:45:32;;;;;;;;;;;;;;;28.46;43.38;94159.00;4970964;28;9504;-63
2022/08/19 09:47:59;;;;;;;;;;;;;;;28.44;43.10;94161.56;4990592;28;7234;-63
2022/08/19 09:50:25;;;;;;;;;;;;;;;28.42;42.93;94161.34;4991385;28;7182;-62
2022/08/19 09:52:52;;;;;;;;;;;;;;;28.43;42.95;94160.06;4988857;28;7492;-62
2022/08/19 09:55:18;;;;;;;;;;;;;;;28.43;43.11;94168.34;4988163;28;6946;-62
2022/08/19 09:57:53;;;;;;;;;;;;;;;28.42;42.97;94166.13;4988916;28;7076;-63
2022/08/19 10:00:21;;;;;;;;;;;;;;;28.43;43.21;94173.91;4989055;28;7151;-63
2022/08/19 10:02:50;;;;;;;;;;;;;;;28.43;42.99;94173.91;4991504;28;7406;-62
2022/08/19 10:08:02;;;;;;;;;;;;;;;28.45;43.06;94176.88;5009379;28;7711;-63
2022/08/19 10:10:28;;;;;;;;;;;;;;;28.48;43.18;94175.06;5004458;28;9023;-62
2022/08/19 10:12:54;;;;;;;;;;;;;;;28.48;42.75;94175.06;5005722;28;9509;-63
2022/08/19 10:15:20;;;;;;;;;;;;;;;28.46;42.84;94172.09;4992845;28;7509;-63
2022/08/19 10:17:47;;;;;;;;;;;;;;;28.47;42.83;94174.31;4993412;28;7940;-63
2022/08/19 10:20:13;;;;;;;;;;;;;;;28.46;42.97;94172.84;5009710;28;8011;-63
2022/08/19 10:22:43;;;;;;;;;;;;;;;28.49;43.23;94179.31;4993492;28;8269;-63
2022/08/19 10:25:14;;;;;;;;;;;;;;;28.47;42.77;94171.53;4992368;28;7233;-62
2022/08/19 10:27:44;;;;;;;;;;;;;;;28.49;42.96;94185.63;4987921;28;7311;-62
2022/08/19 10:30:20;;;;;;;;;;;;;;;28.45;43.21;94176.88;5010581;28;9070;-62
2022/08/19 10:32:58;;;;;;;;;;;;;;;28.43;42.95;94176.66;4994193;28;7227;-61
2022/08/19 10:35:29;;;;;;;;;;;;;;;28.43;42.89;94179.44;4990084;28;7920;-61
2022/08/19 10:37:58;;;;;;;;;;;;;;;28.40;43.14;94169.44;4992295;28;7244;-61
2022/08/19 10:40:31;;;;;;;;;;;;;;;28.42;42.92;94177.97;4989269;28;7516;-61
2022/08/19 10:43:05;;;;;;;;;;;;;;;28.41;42.77;94176.44;4996849;28;7201;-61
2022/08/19 10:46:20;;;;;;;;;;;;;;;28.43;43.01;94179.44;4990030;28;9072;-61
2022/08/19 10:48:49;;;;;;;;;;;;;;;28.40;42.82;94186.03;4985685;28;7244;-62
2022/08/19 10:54:16;;;;;;;;;;;;;;;28.40;43.07;94188.81;5008748;28;7154;-62
2022/08/19 10:56:54;;;;;;;;;;;;;;;28.39;42.99;94181.78;5005317;28;6860;-63
2022/08/19 10:59:32;;;;;;;;;;;;;;;28.38;42.96;94183.78;4987744;28;7077;-63
2022/08/19 11:02:29;;;;;;;;;;;;;;;28.40;42.77;94183.28;5004094;28;8763;-63
2022/08/19 11:05:01;;;;;;;;;;;;;;;28.40;43.02;94172.22;4912284;29;7222;-63
2022/08/19 11:07:28;;;;;;;;;;;;;;;28.37;42.88;94181.56;4897175;29;7356;-61
2022/08/19 11:10:09;;;;;;;;;;;;;;;28.38;43.19;94185.84;4893116;29;7327;-61
2022/08/19 11:12:41;;;;;;;;;;;;;;;28.39;42.85;94184.53;4897166;29;7019;-62
2022/08/19 11:15:10;;;;;;;;;;;;;;;28.38;42.76;94183.78;4894086;29;9350;-62
2022/08/19 11:17:41;;;;;;;;;;;;;;;28.37;42.77;94187.09;4910208;29;9219;-62
2022/08/19 11:20:08;;;;;;;;;;;;;;;28.39;42.79;94198.38;4896326;29;8788;-62
2022/08/19 11:22:35;;;;;;;;;;;;;;;28.38;42.87;94194.13;4910738;29;7604;-62
2022/08/19 11:25:56;;;;;;;;;;;;;;;28.38;42.61;94189.31;4913032;29;8722;-62
2022/08/19 11:28:42;;;;;;;;;;;;;;;28.37;42.73;94198.16;4819327;29;7174;-62
2022/08/19 11:31:22;;;;;;;;;;;;;;;28.38;42.65;94211.47;4819545;29;8765;-62
2022/08/19 11:34:17;;;;;;;;;;;;;;;28.38;42.68;94210.75;4819458;29;8633;-62
2022/08/19 11:37:06;;;;;;;;;;;;;;;28.36;43.19;94210.53;4804790;29;8929;-62
2022/08/19 11:39:36;;;;;;;;;;;;;;;28.35;43.12;94206.25;4808199;29;7306;-62
2022/08/19 11:42:55;;;;;;;;;;;;;;;28.34;43.33;94219.34;4877189;29;9462;-62
2022/08/19 11:45:04;;;;;;;;;;;;;;;28.36;42.82;94216.06;4894263;29;9276;-62
2022/08/19 11:47:49;;;;;;;;;;;;;;;28.37;42.75;94214.75;4905700;29;7123;-62
2022/08/19 11:50:33;;;;;;;;;;;;;;;28.37;42.83;94223.06;4896297;29;7255;-62
2022/08/19 11:53:00;;;;;;;;;;;;;;;28.36;42.71;94229.91;4877204;29;7271;-61
2022/08/19 11:55:27;;;;;;;;;;;;;;;28.38;42.41;94228.06;4894056;29;7243;-62
2022/08/19 11:58:01;;;;;;;;;;;;;;;28.37;42.58;94228.59;4908098;29;7220;-62
2022/08/19 12:01:22;;;;;;;;;;;;;;;28.35;42.78;94225.63;4878221;29;7004;-62
2022/08/19 12:03:58;;;;;;;;;;;;;;;28.34;42.74;94232.41;4912792;29;7228;-62
2022/08/19 12:06:50;;;;;;;;;;;;;;;28.34;42.59;94224.13;4930109;29;7212;-62
2022/08/19 12:09:17;;;;;;;;;;;;;;;28.35;42.85;94233.91;4912560;29;7017;-62
2022/08/19 12:11:54;;;;;;;;;;;;;;;28.33;42.63;94230.94;4914579;29;6852;-62
2022/08/19 12:14:20;;;;;;;;;;;;;;;28.32;42.38;94229.44;4927224;29;7083;-62
2022/08/19 12:16:46;;;;;;;;;;;;;;;28.35;42.47;94239.47;4910996;29;7170;-62
2022/08/19 12:19:12;;;;;;;;;;;;;;;28.34;43.06;94229.66;4908144;29;9113;-62
2022/08/19 12:21:38;;;;;;;;;;;;;;;28.32;42.74;94230.19;4910184;29;8266;-62
2022/08/19 12:24:05;;;;;;;;;;;;;;;28.33;42.54;94236.47;4924901;29;9543;-63
2022/08/19 12:26:31;;;;;;;;;;;;;;;28.33;42.59;94237.22;4925300;29;8368;-63
2022/08/19 12:29:00;;;;;;;;;;;;;;;28.35;42.88;94233.91;4927088;29;7236;-63
2022/08/19 12:31:40;;;;;;;;;;;;;;;28.36;42.83;94240.97;4929000;29;7271;-63
2022/08/19 12:34:16;;;;;;;;;;;;;;;28.35;42.33;94231.16;4928355;29;7059;-63
2022/08/19 12:36:49;;;;;;;;;;;;;;;28.37;42.52;94234.13;4934099;28;7198;-62
2022/08/19 12:39:27;;;;;;;;;;;;;;;28.35;43.19;94236.69;4985554;28;7190;-62
2022/08/19 12:41:54;;;;;;;;;;;;;;;28.34;42.42;94229.66;4984683;28;9459;-62
2022/08/19 12:44:30;;;;;;;;;;;;;;;28.37;42.38;94231.38;5006266;28;9100;-62
2022/08/19 12:46:59;;;;;;;;;;;;;;;28.37;42.73;94236.91;4984980;28;7384;-62
2022/08/19 12:49:46;;;;;;;;;;;;;;;28.34;42.66;94224.88;5001053;28;9357;-62
2022/08/19 12:52:15;;;;;;;;;;;;;;;28.35;42.71;94229.13;5002102;28;7012;-62
2022/08/19 12:54:44;;;;;;;;;;;;;;;28.36;42.47;94229.91;4986888;28;7161;-63
2022/08/19 12:57:10;;;;;;;;;;;;;;;28.38;42.65;94229.34;5002058;28;9474;-63
2022/08/19 12:59:38;;;;;;;;;;;;;;;28.39;42.64;94228.81;5002076;28;7112;-62
2022/08/19 13:02:06;;;;;;;;;;;;;;;28.38;42.67;94225.28;5003776;28;7265;-62
2022/08/19 13:04:40;;;;;;;;;;;;;;;28.36;42.40;94227.84;4985907;28;7266;-63
2022/08/19 13:07:08;;;;;;;;;;;;;;;28.36;42.43;94227.13;4984844;28;7483;-63
2022/08/19 13:09:35;;;;;;;;;;;;;;;28.37;42.80;94234.13;4984727;28;9163;-62
2022/08/19 13:12:03;;;;;;;;;;;;;;;28.37;42.57;94217.53;5005503;28;7263;-61
2022/08/19 13:14:31;;;;;;;;;;;;;;;28.35;42.97;94220.09;4984200;28;7147;-63
2022/08/19 13:16:59;;;;;;;;;;;;;;;28.36;42.71;94224.34;4992253;28;8674;-62
2022/08/19 13:19:26;;;;;;;;;;;;;;;28.37;42.61;94225.84;5010285;28;9510;-63
2022/08/19 13:21:55;;;;;;;;;;;;;;;28.35;42.64;94220.84;5011807;28;9552;-63
2022/08/19 13:24:29;;;;;;;;;;;;;;;28.36;42.70;94227.13;4999879;28;7888;-62
2022/08/19 13:26:58;;;;;;;;;;;;;;;28.37;42.47;94225.84;5010005;28;7208;-63
2022/08/19 13:34:57;;;;;;;;;;;;;;;28.37;42.27;94220.31;5004113;28;7268;-62
2022/08/19 13:37:43;;;;;;;;;;;;;;;28.38;42.87;94224.56;4988165;28;7218;-62
2022/08/19 13:40:23;;;;;;;;;;;;;;;28.38;42.67;94223.81;5003228;28;7268;-63
2022/08/19 13:42:52;;;;;;;;;;;;;;;28.36;42.63;94227.84;5007109;28;7447;-62
2022/08/19 13:45:33;;;;;;;;;;;;;;;28.36;43.09;94227.13;4986083;28;8784;-62
2022/08/19 13:48:19;;;;;;;;;;;;;;;28.36;42.65;94227.13;5010034;28;7146;-63
2022/08/19 13:51:09;;;;;;;;;;;;;;;28.35;42.55;94223.59;4989451;28;7035;-62
2022/08/19 13:53:50;;;;;;;;;;;;;;;28.34;42.44;94229.66;4994239;28;7223;-62
2022/08/19 13:56:20;;;;;;;;;;;;;;;28.35;42.62;94228.38;4987124;28;6996;-62
2022/08/19 13:58:47;;;;;;;;;;;;;;;28.34;42.50;94238.69;5005354;28;7309;-62
2022/08/19 14:01:23;;;;;;;;;;;;;;;28.34;42.64;94243.47;4983229;28;7246;-63
2022/08/19 14:04:18;;;;;;;;;;;;;;;28.34;42.45;94243.47;4980835;28;7354;-63